Time;durP1;ratioP1;P1;durP2;ratioP2;P2;SDS_P1;SDS_P2;PMS_P1;PMS_P2;Temp;Humidity;BMP_temperature;BMP_pressure;BME280_temperature;BME280_humidity;BME280_pressure;Samples;Min_cycle;Max_cycle;Signal;HPM_P1;HPM_P2
2022/08/18 00:00:43;;;;;;;17.38;15.75;;;;;;;21.73;54.31;100007.06;4990972;28;20047;-75
2022/08/18 00:03:10;;;;;;;17.60;16.23;;;;;;;21.76;54.27;100001.50;4991066;28;20062;-75
2022/08/18 00:05:35;;;;;;;17.40;16.08;;;;;;;21.77;53.94;99999.66;4987961;28;20533;-75
2022/08/18 00:08:00;;;;;;;15.80;14.70;;;;;;;21.77;54.22;99997.88;4991156;28;20038;-75
2022/08/18 00:10:26;;;;;;;16.23;14.98;;;;;;;21.69;55.44;100000.13;4991581;28;20555;-75
2022/08/18 00:12:52;;;;;;;14.27;13.13;;;;;;;21.54;55.38;99995.72;4991179;28;20062;-75
2022/08/18 00:15:18;;;;;;;14.70;13.52;;;;;;;21.44;56.47;99995.38;4991424;28;20035;-75
2022/08/18 00:17:44;;;;;;;14.15;12.95;;;;;;;21.33;57.17;99995.13;4990946;28;20378;-75
2022/08/18 00:20:13;;;;;;;14.38;13.30;;;;;;;21.25;57.40;100000.97;4993306;28;20096;-75
2022/08/18 00:22:39;;;;;;;14.57;13.48;;;;;;;21.21;58.91;100002.06;4991203;28;20451;-75
2022/08/18 00:25:06;;;;;;;13.38;12.07;;;;;;;21.22;58.75;100007.38;4991475;28;20173;-75
2022/08/18 00:27:32;;;;;;;13.00;11.93;;;;;;;21.21;59.12;100002.94;4992790;28;20037;-75
2022/08/18 00:30:00;;;;;;;13.20;11.80;;;;;;;21.26;58.77;100010.72;4995781;28;20046;-75
2022/08/18 00:32:28;;;;;;;13.88;11.57;;;;;;;21.25;59.33;100006.31;4987355;28;20493;-75
2022/08/18 00:34:54;;;;;;;12.95;11.85;;;;;;;21.22;59.08;100017.22;4990917;28;20085;-75
2022/08/18 00:37:21;;;;;;;11.93;10.85;;;;;;;21.22;58.98;100006.47;4991919;28;20061;-74
2022/08/18 00:39:49;;;;;;;14.05;11.85;;;;;;;21.11;59.20;100017.84;4994687;28;20045;-74
2022/08/18 00:42:26;;;;;;;12.48;11.30;;;;;;;21.06;58.74;100016.38;4994451;28;20248;-75
2022/08/18 00:44:52;;;;;;;13.05;11.93;;;;;;;21.00;58.66;100017.59;4994634;28;20092;-74
2022/08/18 00:47:17;;;;;;;13.30;12.25;;;;;;;20.98;58.46;100015.00;4994585;28;20042;-74
2022/08/18 00:49:45;;;;;;;12.57;11.57;;;;;;;21.06;58.06;100011.88;4989997;28;20042;-74
2022/08/18 00:52:13;;;;;;;12.18;11.27;;;;;;;21.05;58.16;100006.63;4992975;28;20116;-74
2022/08/18 00:54:40;;;;;;;13.60;12.52;;;;;;;21.06;57.35;100002.97;4994200;28;20049;-74
2022/08/18 00:57:07;;;;;;;14.93;11.23;;;;;;;21.06;57.44;100002.97;4993913;28;20496;-74
2022/08/18 00:59:55;;;;;;;13.35;12.10;;;;;;;21.01;58.04;100004.13;4994233;28;20574;-75
2022/08/18 01:02:27;;;;;;;12.50;11.50;;;;;;;20.99;57.98;99997.97;4993823;28;20030;-74
2022/08/18 01:04:58;;;;;;;;;;;;;;;20.93;59.11;99998.34;4992073;28;20038;-74
2022/08/18 01:07:32;;;;;;;14.00;12.80;;;;;;;20.92;57.39;100001.94;4994278;28;20380;-75
2022/08/18 01:09:58;;;;;;;13.32;12.02;;;;;;;20.98;56.83;99998.91;4994174;28;20045;-74
2022/08/18 01:12:25;;;;;;;14.38;12.20;;;;;;;20.99;56.66;99999.78;4993829;28;20497;-75
2022/08/18 01:14:52;;;;;;;15.90;14.40;;;;;;;20.97;56.87;99997.19;4994017;28;20038;-75
2022/08/18 01:22:48;;;;;;;20.23;18.45;;;;;;;21.12;56.33;100005.31;4990176;28;20093;-74
2022/08/18 01:28:02;;;;;;;17.33;15.82;;;;;;;21.21;55.77;100012.81;4990933;28;20034;-75
2022/08/18 01:30:28;;;;;;;17.55;16.05;;;;;;;21.24;55.31;100009.94;4992355;28;20531;-74
2022/08/18 01:32:54;;;;;;;18.58;16.75;;;;;;;21.25;55.80;100014.38;4993622;28;20649;-75
2022/08/18 01:35:24;;;;;;;16.08;14.65;;;;;;;21.18;55.82;100010.31;4993760;28;20052;-74
2022/08/18 01:37:50;;;;;;;14.98;13.70;;;;;;;21.10;55.88;100010.75;4990297;28;20413;-75
2022/08/18 01:40:18;;;;;;;13.45;12.45;;;;;;;21.06;55.77;100005.66;4993600;28;20117;-75
2022/08/18 01:42:44;;;;;;;14.00;12.95;;;;;;;21.01;56.16;100011.28;4992091;28;20113;-74
2022/08/18 01:45:12;;;;;;;12.93;11.63;;;;;;;20.93;56.66;100016.22;4993447;28;20105;-75
2022/08/18 01:47:39;;;;;;;12.48;11.43;;;;;;;20.81;57.17;100007.06;4993309;28;20061;-75
2022/08/18 01:50:07;;;;;;;13.52;12.48;;;;;;;20.74;57.54;100011.03;4991576;28;20405;-75
2022/08/18 01:52:34;;;;;;;12.93;11.57;;;;;;;20.66;58.08;100002.56;4993023;28;20464;-75
2022/08/18 01:55:01;;;;;;;13.77;12.57;;;;;;;20.66;57.74;100010.63;4993382;28;20042;-75
2022/08/18 01:57:26;;;;;;;16.33;13.52;;;;;;;20.60;58.18;100010.97;4992867;28;20484;-75
2022/08/18 01:59:52;;;;;;;14.07;12.68;;;;;;;20.62;57.47;100007.25;4993035;28;20041;-75
2022/08/18 02:02:23;;;;;;;14.93;13.55;;;;;;;20.69;57.33;100011.28;4993067;28;20033;-75
2022/08/18 02:04:58;;;;;;;16.88;13.40;;;;;;;20.72;57.48;100003.09;4991963;28;20035;-75
2022/08/18 02:07:24;;;;;;;16.67;15.27;;;;;;;20.70;56.82;100004.16;4989299;28;20058;-75
2022/08/18 02:09:49;;;;;;;18.23;16.30;;;;;;;20.71;56.91;100003.19;4992462;28;20374;-75
2022/08/18 02:12:15;;;;;;;13.20;12.00;;;;;;;20.63;57.38;100000.94;4992175;28;20416;-75
2022/08/18 02:14:41;;;;;;;12.82;11.35;;;;;;;20.46;57.78;100006.31;4992787;28;20045;-74
2022/08/18 02:17:07;;;;;;;12.68;11.68;;;;;;;20.36;58.34;99998.81;4991874;28;20042;-74
2022/08/18 02:19:37;;;;;;;14.00;12.63;;;;;;;20.29;59.84;100005.44;4992710;28;20042;-74
2022/08/18 02:22:03;;;;;;;15.05;13.75;;;;;;;20.25;58.67;100005.69;4988610;28;20133;-74
2022/08/18 02:24:29;;;;;;;14.43;13.23;;;;;;;20.26;58.77;100010.13;4992686;28;20373;-74
2022/08/18 02:26:54;;;;;;;14.30;13.10;;;;;;;20.27;59.00;100007.34;4992444;28;20044;-75
2022/08/18 02:29:19;;;;;;;14.75;13.25;;;;;;;20.33;58.55;100008.81;4992128;28;20044;-75
2022/08/18 02:31:44;;;;;;;14.25;13.15;;;;;;;20.29;59.11;100007.25;4992070;28;20052;-75
2022/08/18 02:34:10;;;;;;;14.10;12.80;;;;;;;20.29;58.90;100002.75;4992422;28;20042;-74
2022/08/18 02:36:35;;;;;;;13.82;12.52;;;;;;;20.31;58.62;100005.38;4992148;28;20045;-75
2022/08/18 02:39:01;;;;;;;13.27;12.18;;;;;;;20.27;58.68;100003.78;4991799;28;20050;-74
2022/08/18 02:41:27;;;;;;;12.57;11.57;;;;;;;20.24;59.19;100006.66;4991902;28;20033;-74
2022/08/18 02:43:52;;;;;;;12.75;11.70;;;;;;;20.18;59.11;100012.34;4992493;28;20038;-75
2022/08/18 02:46:18;;;;;;;11.98;10.98;;;;;;;20.12;59.39;99994.75;4992140;28;20034;-75
2022/08/18 02:48:43;;;;;;;15.55;11.88;;;;;;;20.11;59.87;100001.09;4992299;28;20500;-74
2022/08/18 02:51:13;;;;;;;13.50;12.40;;;;;;;20.09;60.04;100006.50;4991698;28;20038;-75
2022/08/18 02:53:41;;;;;;;12.75;11.55;;;;;;;20.12;60.44;100005.47;4992255;28;20088;-74
2022/08/18 02:56:19;;;;;;;12.10;10.90;;;;;;;20.15;59.74;100008.03;4992098;28;20038;-74
2022/08/18 02:58:45;;;;;;;13.32;12.13;;;;;;;20.18;59.75;100007.84;5002000;28;20556;-74
2022/08/18 03:01:10;;;;;;;13.75;12.52;;;;;;;20.18;59.69;99998.97;4991046;28;20034;-75
2022/08/18 03:03:36;;;;;;;12.77;11.70;;;;;;;20.07;59.89;99995.03;4991997;28;20038;-75
2022/08/18 03:06:01;;;;;;;11.45;10.27;;;;;;;20.06;59.92;99997.78;4992084;28;20404;-74
2022/08/18 03:08:27;;;;;;;15.68;14.05;;;;;;;20.06;59.35;99995.97;4991840;28;20089;-74
2022/08/18 03:10:52;;;;;;;12.30;11.13;;;;;;;20.07;59.64;99992.38;4991831;28;20035;-74
2022/08/18 03:13:17;;;;;;;13.10;11.93;;;;;;;19.99;59.70;99983.88;4991722;28;20495;-74
2022/08/18 03:15:43;;;;;;;13.13;11.82;;;;;;;19.96;59.77;99980.47;4991923;28;20030;-74
2022/08/18 03:18:10;;;;;;;13.55;12.35;;;;;;;19.96;59.51;99975.97;4990607;28;20049;-74
2022/08/18 03:20:36;;;;;;;14.90;13.45;;;;;;;19.99;59.19;99983.00;4991691;28;20076;-74
2022/08/18 03:23:02;;;;;;;11.77;10.85;;;;;;;19.95;59.70;99971.59;4991420;28;20053;-75
2022/08/18 03:25:28;;;;;;;12.48;11.45;;;;;;;19.92;59.40;99969.06;4991742;28;20034;-75
2022/08/18 03:27:53;;;;;;;12.10;10.85;;;;;;;19.89;59.61;99977.28;4991678;28;20400;-74
2022/08/18 03:30:18;;;;;;;11.98;10.82;;;;;;;19.90;59.42;99976.31;4991896;28;20404;-75
2022/08/18 03:32:44;;;;;;;13.90;11.73;;;;;;;19.93;59.26;99974.34;4991355;28;20408;-75
2022/08/18 03:35:09;;;;;;;13.73;11.70;;;;;;;19.89;59.26;99974.59;4991715;28;20645;-74
2022/08/18 03:37:35;;;;;;;13.32;11.52;;;;;;;19.90;59.43;99976.31;4991485;28;20049;-75
2022/08/18 03:40:00;;;;;;;14.25;10.73;;;;;;;19.90;60.11;99976.31;4991716;28;20053;-75
2022/08/18 03:42:25;;;;;;;12.15;11.15;;;;;;;19.88;59.96;99979.06;4991337;28;20473;-75
2022/08/18 03:44:51;;;;;;;12.60;11.57;;;;;;;19.88;60.04;99981.75;4991496;28;20038;-74
2022/08/18 03:47:16;;;;;;;14.07;12.18;;;;;;;19.83;59.89;99974.91;4991566;28;20034;-75
2022/08/18 03:49:42;;;;;;;12.93;10.95;;;;;;;19.77;60.29;99969.91;4991470;28;20030;-75
2022/08/18 03:52:09;;;;;;;14.20;12.57;;;;;;;19.73;60.45;99969.19;4988072;28;20034;-75
2022/08/18 03:54:35;;;;;;;12.75;11.65;;;;;;;19.72;60.79;99974.63;4991143;28;20078;-74
2022/08/18 03:57:00;;;;;;;11.82;10.93;;;;;;;19.68;60.47;99984.63;4989697;28;20073;-74
2022/08/18 03:59:27;;;;;;;13.20;11.68;;;;;;;19.68;60.96;99982.81;4991516;28;20078;-74
2022/08/18 04:01:53;;;;;;;13.40;12.30;;;;;;;19.68;61.34;99984.63;4991215;28;20038;-74
2022/08/18 04:04:22;;;;;;;13.75;12.43;;;;;;;19.77;60.50;99988.63;4991461;28;20141;-74
2022/08/18 04:06:54;;;;;;;16.15;14.68;;;;;;;19.87;60.25;99989.88;4989547;28;20121;-75
2022/08/18 04:09:20;;;;;;;;;;;;;;;19.96;60.73;99991.19;4988809;28;20489;-74
2022/08/18 04:11:46;;;;;;;13.13;11.48;;;;;;;19.98;59.67;99983.94;4991052;28;20016;-74
2022/08/18 04:14:13;;;;;;;13.40;12.18;;;;;;;19.98;59.79;99992.84;4994427;28;20109;-75
2022/08/18 04:16:39;;;;;;;13.43;12.32;;;;;;;19.92;60.38;99988.69;4994698;28;20621;-75
2022/08/18 04:19:06;;;;;;;13.77;12.65;;;;;;;20.00;60.08;99988.28;4994536;28;20097;-75
2022/08/18 04:21:35;;;;;;;14.52;12.80;;;;;;;20.03;59.42;99989.94;4994591;28;20042;-75
2022/08/18 04:24:04;;;;;;;12.88;11.77;;;;;;;20.00;59.67;99987.41;4993995;28;20038;-75
2022/08/18 04:26:38;;;;;;;14.35;12.93;;;;;;;20.14;59.13;99982.16;4992404;28;20084;-74
2022/08/18 04:29:05;;;;;;;14.70;13.30;;;;;;;20.24;58.92;99983.41;5008015;28;20038;-74
2022/08/18 04:31:31;;;;;;;13.80;12.48;;;;;;;20.36;58.74;99981.88;4993350;28;20038;-74
2022/08/18 04:33:58;;;;;;;12.52;11.32;;;;;;;20.40;58.91;99983.41;4994737;28;20499;-75
2022/08/18 04:36:24;;;;;;;13.60;10.85;;;;;;;20.45;58.31;99986.69;4994591;28;20049;-74
2022/08/18 04:38:50;;;;;;;14.55;13.35;;;;;;;20.41;58.76;99992.31;4994496;28;20061;-74
2022/08/18 04:41:15;;;;;;;15.55;14.00;;;;;;;20.52;57.99;99996.13;4994275;28;20485;-74
2022/08/18 04:43:41;;;;;;;14.50;12.98;;;;;;;20.68;57.71;100003.34;4992617;28;20034;-75
2022/08/18 04:46:07;;;;;;;13.40;12.20;;;;;;;20.73;56.93;100003.97;4991027;28;20121;-75
2022/08/18 04:48:38;;;;;;;14.45;13.15;;;;;;;20.73;57.25;100010.19;4994086;28;20050;-75
2022/08/18 04:51:13;;;;;;;15.70;12.55;;;;;;;20.74;57.78;100011.91;4993993;28;20041;-75
2022/08/18 04:53:45;;;;;;;13.93;12.52;;;;;;;20.87;57.00;100013.91;4994436;28;20046;-75
2022/08/18 04:56:25;;;;;;;17.45;15.80;;;;;;;20.99;56.70;100005.16;4992030;28;20042;-75
2022/08/18 04:59:05;;;;;;;21.60;19.52;;;;;;;21.20;56.62;100008.41;4992285;28;20065;-75
2022/08/18 05:01:36;;;;;;;19.33;17.52;;;;;;;21.37;55.79;100010.09;4989575;28;20046;-74
2022/08/18 05:04:02;;;;;;;18.67;17.07;;;;;;;21.53;55.41;100004.69;4993638;28;20038;-74
2022/08/18 05:06:28;;;;;;;20.17;16.40;;;;;;;21.68;55.03;100006.47;4993827;28;20062;-74
2022/08/18 05:08:57;;;;;;;16.63;14.95;;;;;;;21.83;54.72;100008.22;4992739;28;20038;-75
2022/08/18 05:11:24;;;;;;;18.15;16.27;;;;;;;21.98;54.46;100016.28;4990508;28;20065;-75
2022/08/18 05:13:54;;;;;;;18.92;17.17;;;;;;;22.10;53.92;100013.72;4993818;28;20034;-74
2022/08/18 05:16:19;;;;;;;19.77;17.85;;;;;;;22.20;54.10;100019.41;4993883;28;20045;-75
2022/08/18 05:18:45;;;;;;;27.42;22.77;;;;;;;22.34;53.38;100006.94;4993094;28;20026;-74
2022/08/18 05:21:14;;;;;;;22.05;20.15;;;;;;;22.53;53.30;100007.47;4993509;28;22000;-74
2022/08/18 05:23:44;;;;;;;23.48;21.48;;;;;;;22.72;52.42;100008.03;4993060;28;20048;-74
2022/08/18 05:26:12;;;;;;;20.80;19.17;;;;;;;22.88;52.02;100007.88;4992209;28;20404;-74
2022/08/18 05:28:37;;;;;;;19.02;17.15;;;;;;;23.04;51.96;100018.53;4992600;28;20049;-75
2022/08/18 05:31:11;;;;;;;17.20;15.52;;;;;;;23.15;51.71;100016.00;4993075;28;20061;-75
2022/08/18 05:33:40;;;;;;;16.35;14.80;;;;;;;23.20;51.62;100018.38;4989699;28;20034;-75
2022/08/18 05:36:30;;;;;;;20.75;16.58;;;;;;;23.31;51.11;100014.97;4992935;28;20038;-75
2022/08/18 05:39:10;;;;;;;18.08;16.27;;;;;;;23.41;50.83;100029.53;4991761;28;20042;-75
2022/08/18 05:41:55;;;;;;;19.65;17.80;;;;;;;23.39;50.94;100028.78;4989953;28;20038;-75
2022/08/18 05:44:27;;;;;;;22.65;16.25;;;;;;;23.34;51.81;100037.19;4985242;28;20046;-74
2022/08/18 05:47:03;;;;;;;18.83;17.27;;;;;;;23.41;51.85;100033.09;4992762;28;20061;-74
2022/08/18 05:49:30;;;;;;;16.95;15.27;;;;;;;23.54;51.77;100027.75;4989786;28;20411;-74
2022/08/18 05:52:03;;;;;;;17.25;15.63;;;;;;;23.64;50.80;100025.28;4992820;28;20390;-75
2022/08/18 05:57:24;;;;;;;17.95;16.63;;;;;;;23.73;50.48;100040.84;4989758;28;20052;-75
2022/08/18 05:59:52;;;;;;;18.70;17.17;;;;;;;23.81;49.91;100037.63;4988865;28;20468;-75
2022/08/18 06:02:32;;;;;;;20.08;18.48;;;;;;;24.03;49.67;100023.53;5005813;23;20035;-72
2022/08/18 06:05:03;;;;;;;20.15;18.35;;;;;;;24.16;49.37;100035.16;4964979;28;20050;-72
2022/08/18 06:07:34;;;;;;;19.45;18.00;;;;;;;24.24;49.06;100032.78;4967214;28;20035;-73
2022/08/18 06:10:00;;;;;;;20.63;18.92;;;;;;;24.39;48.68;100038.03;4968146;28;20035;-72
2022/08/18 06:12:32;;;;;;;19.55;17.95;;;;;;;24.45;48.67;100034.97;4966230;28;20035;-73
2022/08/18 06:15:14;;;;;;;26.85;24.02;;;;;;;24.51;48.29;100029.13;4963462;28;20442;-72
2022/08/18 06:18:06;;;;;;;20.38;18.52;;;;;;;24.60;48.60;100027.56;4961997;28;20035;-72
2022/08/18 06:20:52;;;;;;;17.10;15.48;;;;;;;24.65;48.09;100026.28;4960992;28;20031;-73
2022/08/18 06:23:27;;;;;;;17.75;16.17;;;;;;;24.73;48.01;100033.81;4958179;28;20035;-73
2022/08/18 06:26:10;;;;;;;18.42;16.42;;;;;;;24.86;47.95;100033.78;4960316;28;20035;-72
2022/08/18 06:29:07;;;;;;;18.15;16.50;;;;;;;24.98;47.94;100040.13;4962922;28;20113;-73
2022/08/18 06:31:44;;;;;;;18.58;16.90;;;;;;;24.96;47.73;100039.34;4961672;28;20457;-73
2022/08/18 06:34:25;;;;;;;17.58;16.08;;;;;;;25.08;47.36;100039.31;4958094;28;20058;-72
2022/08/18 06:36:58;;;;;;;;;;;;;;;25.14;46.86;100036.16;4961891;28;20043;-73
2022/08/18 06:39:48;;;;;;;16.90;15.43;;;;;;;25.31;45.91;100045.72;4958771;28;19914;-73
2022/08/18 06:42:20;;;;;;;16.65;15.25;;;;;;;25.43;45.94;100043.06;4953305;28;20054;-72
2022/08/18 06:44:49;;;;;;;17.02;15.63;;;;;;;25.51;45.60;100038.78;4963310;28;20056;-72
2022/08/18 06:47:36;;;;;;;17.10;15.50;;;;;;;25.65;44.88;100037.75;4961417;28;20054;-73
2022/08/18 06:50:18;;;;;;;16.25;15.02;;;;;;;25.74;44.78;100039.75;4959644;28;20125;-72
2022/08/18 06:52:56;;;;;;;16.48;14.95;;;;;;;25.90;44.64;100039.44;4962339;28;20050;-72
2022/08/18 06:55:51;;;;;;;16.30;15.10;;;;;;;26.12;44.33;100037.75;4963782;28;20069;-73
2022/08/18 06:58:18;;;;;;;18.27;16.70;;;;;;;26.18;44.16;100030.03;4950113;28;20051;-73
2022/08/18 07:00:50;;;;;;;15.48;14.15;;;;;;;26.25;43.41;100030.38;4965431;28;20038;-72
2022/08/18 07:03:40;;;;;;;17.70;16.30;;;;;;;26.44;43.66;100037.91;4960677;28;20110;-73
2022/08/18 07:06:05;;;;;;;13.73;12.82;;;;;;;26.63;42.79;100040.88;4961115;28;20122;-72
2022/08/18 07:08:42;;;;;;;15.85;14.23;;;;;;;26.75;43.07;100038.16;4963088;28;20655;-73
2022/08/18 07:11:19;;;;;;;15.68;14.35;;;;;;;26.84;42.16;100038.25;4959952;28;20503;-73
2022/08/18 07:13:47;;;;;;;22.05;20.15;;;;;;;26.99;42.35;100035.31;4959638;28;20043;-73
2022/08/18 07:16:28;;;;;;;18.17;16.35;;;;;;;27.08;41.95;100035.38;4961543;28;20035;-73
2022/08/18 07:18:53;;;;;;;18.50;17.00;;;;;;;27.14;41.67;100033.16;4963320;28;20525;-73
2022/08/18 07:21:28;;;;;;;16.80;15.60;;;;;;;27.22;41.09;100033.41;4958391;28;20122;-72
2022/08/18 07:24:03;;;;;;;17.70;16.27;;;;;;;27.35;40.99;100036.78;4961293;28;20035;-73
2022/08/18 07:26:29;;;;;;;16.02;14.50;;;;;;;27.42;41.47;100034.44;4961124;28;20082;-74
2022/08/18 07:28:54;;;;;;;17.90;16.35;;;;;;;27.51;41.35;100031.81;4961306;28;20071;-72
2022/08/18 07:31:41;;;;;;;16.95;15.48;;;;;;;27.61;40.51;100034.59;4959821;28;20039;-73
2022/08/18 07:34:16;;;;;;;16.13;14.93;;;;;;;27.71;40.34;100040.09;4959456;28;20049;-73
2022/08/18 07:36:48;;;;;;;16.67;15.23;;;;;;;27.78;40.38;100037.72;4959324;28;20038;-73
2022/08/18 07:39:22;;;;;;;16.10;14.52;;;;;;;27.91;39.85;100043.84;4962218;28;20039;-73
2022/08/18 07:42:08;;;;;;;16.45;15.18;;;;;;;27.99;40.05;100035.03;4960764;28;20126;-73
2022/08/18 07:44:42;;;;;;;15.68;14.57;;;;;;;28.12;39.94;100038.41;4961336;28;20126;-73
2022/08/18 07:47:18;;;;;;;14.88;13.80;;;;;;;28.22;38.75;100035.72;4963634;28;20509;-73
2022/08/18 07:49:46;;;;;;;14.05;13.00;;;;;;;28.32;39.35;100039.34;4967451;28;20038;-73
2022/08/18 07:52:27;;;;;;;14.88;13.68;;;;;;;28.47;39.02;100039.88;4964431;28;20031;-73
2022/08/18 07:55:14;;;;;;;15.10;14.10;;;;;;;28.57;38.44;100040.78;4965255;28;20047;-73
2022/08/18 07:58:03;;;;;;;14.27;12.98;;;;;;;28.66;37.98;100039.94;4965600;28;20047;-73
2022/08/18 08:00:49;;;;;;;15.23;13.45;;;;;;;28.76;37.61;100043.53;4965583;28;20043;-73
2022/08/18 08:03:29;;;;;;;14.43;13.05;;;;;;;28.83;37.77;100036.56;4965410;28;20034;-73
2022/08/18 08:06:01;;;;;;;16.83;15.27;;;;;;;28.93;38.12;100038.47;4965621;28;20042;-73
2022/08/18 08:08:41;;;;;;;18.95;17.45;;;;;;;29.07;37.77;100040.81;4963492;28;20042;-73
2022/08/18 08:11:22;;;;;;;17.33;15.73;;;;;;;29.32;37.51;100041.25;4965287;28;20421;-74
2022/08/18 08:14:31;;;;;;;15.35;13.82;;;;;;;29.56;36.26;100028.09;4964444;28;20505;-73
2022/08/18 08:17:09;;;;;;;14.93;13.70;;;;;;;29.69;36.41;100025.13;4929819;28;20097;-73
2022/08/18 08:19:54;;;;;;;16.40;13.82;;;;;;;29.72;36.16;100027.56;4961405;28;20069;-73
2022/08/18 08:22:30;;;;;;;15.02;13.70;;;;;;;29.78;36.17;100026.97;4966684;28;20043;-74
2022/08/18 08:25:18;;;;;;;14.95;13.85;;;;;;;29.89;35.31;100024.09;4966624;28;20066;-73
2022/08/18 08:28:09;;;;;;;14.93;13.63;;;;;;;30.11;35.61;100024.75;4964509;28;20140;-73
2022/08/18 08:30:43;;;;;;;15.57;14.18;;;;;;;30.21;35.86;100016.53;4966703;28;20038;-73
2022/08/18 08:33:30;;;;;;;15.68;14.32;;;;;;;30.33;34.52;100015.38;4964189;28;20038;-73
2022/08/18 08:36:04;;;;;;;16.20;14.07;;;;;;;30.45;34.79;100018.78;4964127;28;20050;-73
2022/08/18 08:38:40;;;;;;;17.80;16.23;;;;;;;30.49;34.75;100021.03;4965399;28;20046;-74
2022/08/18 08:41:13;;;;;;;15.27;14.07;;;;;;;30.60;33.65;100017.25;4963962;28;20043;-73
2022/08/18 08:43:44;;;;;;;15.00;13.88;;;;;;;30.73;35.08;100017.78;4965385;28;20456;-73
2022/08/18 08:46:18;;;;;;;14.75;13.65;;;;;;;30.87;34.35;100018.31;4966907;28;20042;-73
2022/08/18 08:48:58;;;;;;;18.80;17.40;;;;;;;31.03;34.12;100017.66;4964764;28;20039;-73
2022/08/18 08:51:33;;;;;;;18.30;16.48;;;;;;;31.16;33.80;100012.66;4963352;28;20386;-73
2022/08/18 08:54:22;;;;;;;17.13;15.45;;;;;;;31.34;33.45;100004.50;4964813;28;20046;-73
2022/08/18 08:56:49;;;;;;;19.95;18.17;;;;;;;31.52;33.99;100007.22;4962415;28;20559;-73
2022/08/18 08:59:17;;;;;;;18.10;16.58;;;;;;;31.59;32.84;100008.31;4965799;28;20057;-74
2022/08/18 09:01:55;;;;;;;17.25;15.77;;;;;;;31.67;32.87;100008.38;4963430;28;20043;-73
2022/08/18 09:04:46;;;;;;;17.85;16.27;;;;;;;31.78;33.50;100004.53;4965110;28;20093;-73
2022/08/18 09:07:12;;;;;;;;;;;;;;;31.99;33.28;99998.75;4965345;28;20489;-73
2022/08/18 09:09:56;;;;;;;17.43;16.07;;;;;;;32.16;32.40;100000.56;4965794;28;19921;-73
2022/08/18 09:12:41;;;;;;;18.42;16.60;;;;;;;32.25;32.15;99994.13;4964777;28;20454;-73
2022/08/18 09:15:36;;;;;;;18.98;17.50;;;;;;;32.30;32.09;99997.25;4964532;28;20487;-73
2022/08/18 09:18:25;;;;;;;18.30;17.10;;;;;;;32.59;31.47;99995.16;4965186;28;20409;-73
2022/08/18 09:21:38;;;;;;;18.10;16.80;;;;;;;32.72;31.17;99996.41;4957851;28;20505;-73
2022/08/18 09:24:17;;;;;;;20.65;18.70;;;;;;;33.03;30.68;99995.84;4932900;28;20059;-73
2022/08/18 09:26:49;;;;;;;20.48;18.67;;;;;;;33.24;29.96;99991.75;4966449;28;20314;-74
2022/08/18 09:29:45;;;;;;;19.60;18.00;;;;;;;33.38;29.34;99991.09;4962568;28;20074;-73
2022/08/18 09:32:17;;;;;;;18.80;17.50;;;;;;;33.25;30.17;99985.25;4964420;28;20065;-74
2022/08/18 09:34:57;;;;;;;18.42;17.13;;;;;;;33.36;29.74;99971.28;4961287;28;20043;-73
2022/08/18 09:37:27;;;;;;;17.98;16.58;;;;;;;33.63;29.51;99970.09;4962613;28;20031;-74
2022/08/18 09:42:49;;;;;;;20.77;19.13;;;;;;;33.65;28.72;99976.25;4962321;28;20122;-74
2022/08/18 09:45:29;;;;;;;18.00;16.75;;;;;;;33.56;28.11;99969.94;4960000;28;20128;-74
2022/08/18 09:47:55;;;;;;;20.67;19.05;;;;;;;33.70;28.62;99973.00;4964550;28;20041;-73
2022/08/18 09:50:27;;;;;;;19.63;18.15;;;;;;;33.54;28.08;99957.47;4957497;28;20110;-74
2022/08/18 09:52:58;;;;;;;21.65;19.77;;;;;;;33.74;28.34;99964.25;4960479;28;20049;-73
2022/08/18 09:55:23;;;;;;;18.02;16.73;;;;;;;33.97;28.05;99963.53;4962897;28;20035;-73
2022/08/18 09:58:19;;;;;;;25.23;22.77;;;;;;;34.03;27.56;99960.97;4956731;28;20042;-73
2022/08/18 10:01:23;;;;;;;19.10;17.80;;;;;;;34.08;27.88;99951.38;4964358;28;20272;-73
2022/08/18 10:04:13;;;;;;;19.42;18.02;;;;;;;34.04;27.42;99959.94;4963407;28;20502;-74
2022/08/18 10:06:40;;;;;;;22.20;20.27;;;;;;;34.18;27.89;99946.56;4962400;28;20031;-73
2022/08/18 10:09:20;;;;;;;18.05;16.33;;;;;;;34.19;27.45;99942.78;4965296;28;20038;-74
2022/08/18 10:12:22;;;;;;;18.00;16.60;;;;;;;34.02;27.50;99944.69;4962694;28;20045;-74
2022/08/18 10:15:07;;;;;;;22.17;20.52;;;;;;;33.99;28.12;99945.91;4963780;28;20945;-74
2022/08/18 10:18:02;;;;;;;23.98;21.90;;;;;;;34.05;28.29;99942.44;4959198;28;20061;-74
2022/08/18 10:21:17;;;;;;;23.70;22.00;;;;;;;34.13;27.57;99935.28;4932381;28;20062;-74
2022/08/18 10:24:04;;;;;;;22.02;20.23;;;;;;;34.39;27.03;99930.38;4954498;28;20073;-73
2022/08/18 10:26:29;;;;;;;23.02;21.33;;;;;;;34.76;27.36;99926.09;4964957;28;20074;-74
2022/08/18 10:29:02;;;;;;;20.13;18.80;;;;;;;35.00;26.30;99926.97;4959052;28;20039;-74
2022/08/18 10:31:29;;;;;;;27.33;25.15;;;;;;;35.16;26.14;99920.53;4959084;28;20760;-74
2022/08/18 10:34:06;;;;;;;23.95;22.23;;;;;;;35.27;26.03;99920.09;4961697;28;20035;-74
2022/08/18 10:36:36;;;;;;;23.35;21.67;;;;;;;35.19;26.56;99921.03;4963435;28;20039;-74
2022/08/18 10:39:05;;;;;;;20.67;19.38;;;;;;;35.36;25.58;99926.38;4963007;28;20074;-73
2022/08/18 10:41:32;;;;;;;20.63;19.00;;;;;;;35.43;26.08;99919.09;4964284;28;20077;-73
2022/08/18 10:44:00;;;;;;;25.13;22.67;;;;;;;35.47;26.39;99928.66;4962151;28;20058;-73
2022/08/18 10:46:31;;;;;;;23.52;21.90;;;;;;;34.89;24.80;99930.97;4962237;28;20039;-73
2022/08/18 10:49:06;;;;;;;20.30;18.60;;;;;;;35.01;25.04;99931.44;4958874;28;20046;-73
2022/08/18 10:51:45;;;;;;;19.75;18.20;;;;;;;35.35;25.33;99928.25;4959192;28;20188;-73
2022/08/18 10:54:28;;;;;;;19.67;17.95;;;;;;;35.38;25.22;99925.16;4962050;28;20114;-73
2022/08/18 10:57:03;;;;;;;18.35;17.02;;;;;;;35.36;25.05;99929.97;4962294;28;20118;-73
2022/08/18 10:59:36;;;;;;;18.67;17.38;;;;;;;35.22;25.52;99931.63;4960987;28;20058;-74
2022/08/18 11:02:22;;;;;;;20.58;19.17;;;;;;;35.34;25.86;99921.94;4960297;28;20032;-74
2022/08/18 11:04:50;;;;;;;19.27;18.08;;;;;;;35.37;26.64;99911.59;4959653;28;20401;-73
2022/08/18 11:07:23;;;;;;;22.25;20.77;;;;;;;35.43;26.60;99908.13;4963766;28;20053;-73
2022/08/18 11:09:53;;;;;;;20.58;19.15;;;;;;;35.64;26.03;99907.44;4962014;28;20039;-73
2022/08/18 11:12:45;;;;;;;21.48;20.17;;;;;;;35.89;25.39;99910.75;4962418;28;20093;-73
2022/08/18 11:15:19;;;;;;;21.67;20.02;;;;;;;35.93;25.88;99907.44;4944343;28;20104;-74
2022/08/18 11:18:16;;;;;;;19.63;18.38;;;;;;;36.03;24.61;99911.81;4966142;28;20049;-73
2022/08/18 11:20:42;;;;;;;23.65;21.95;;;;;;;36.00;25.88;99907.56;4962074;28;20042;-74
2022/08/18 11:23:13;;;;;;;18.83;17.17;;;;;;;35.84;25.39;99911.31;4961690;28;20486;-72
2022/08/18 11:25:40;;;;;;;20.58;19.27;;;;;;;35.71;25.75;99909.25;4962881;28;20121;-73
2022/08/18 11:28:21;;;;;;;20.90;19.60;;;;;;;35.70;25.42;99910.28;4957305;28;20035;-73
2022/08/18 11:30:51;;;;;;;21.30;19.58;;;;;;;35.69;26.20;99911.31;4961742;28;20039;-73
2022/08/18 11:33:18;;;;;;;20.98;19.38;;;;;;;35.46;25.42;99913.25;4961145;28;20035;-73
2022/08/18 11:35:50;;;;;;;19.42;18.00;;;;;;;35.17;26.12;99925.00;4963168;28;20046;-73
2022/08/18 11:38:18;;;;;;;20.02;18.27;;;;;;;34.91;26.12;99927.03;4963543;28;20057;-74
2022/08/18 11:40:45;;;;;;;19.80;18.40;;;;;;;34.81;26.84;99923.66;4960981;28;20051;-73
2022/08/18 11:43:28;;;;;;;20.58;19.08;;;;;;;34.66;26.40;99925.47;4960977;28;20027;-73
2022/08/18 11:45:57;;;;;;;19.02;17.80;;;;;;;34.43;26.27;99925.41;4959294;28;20117;-73
2022/08/18 11:48:34;;;;;;;17.38;16.27;;;;;;;34.26;27.09;99924.63;4963994;28;20502;-73
2022/08/18 11:51:08;;;;;;;18.90;17.13;;;;;;;33.97;27.64;99936.16;4961132;28;20047;-73
2022/08/18 11:53:49;;;;;;;22.13;20.45;;;;;;;33.86;28.01;99939.28;4961499;28;20046;-73